Time;durP1;ratioP1;P1;durP2;ratioP2;P2;SDS_P1;SDS_P2;PMS_P1;PMS_P2;Temp;Humidity;BMP_temperature;BMP_pressure;BME280_temperature;BME280_humidity;BME280_pressure;Samples;Min_cycle;Max_cycle;Signal;HPM_P1;HPM_P2
2023/12/28 00:01:14;;;;;;;11.93;4.37;;;;;;;;;;5047139;28;20425;-72
2023/12/28 00:03:41;;;;;;;14.43;4.83;;;;;;;;;;5029360;28;20572;-71
2023/12/28 00:06:08;;;;;;;16.87;4.60;;;;;;;;;;5029161;28;20747;-72
2023/12/28 00:08:36;;;;;;;13.83;4.63;;;;;;;;;;5047182;28;20440;-72
2023/12/28 00:11:03;;;;;;;15.47;4.73;;;;;;;;;;5029209;28;20464;-72
2023/12/28 00:13:29;;;;;;;17.23;5.50;;;;;;;;;;5045696;28;20417;-72
2023/12/28 00:15:56;;;;;;;13.70;5.70;;;;;;;;;;5047154;28;20444;-71
2023/12/28 00:18:23;;;;;;;16.57;6.17;;;;;;;;;;5046996;28;20456;-71
2023/12/28 00:20:50;;;;;;;17.23;5.33;;;;;;;;;;5047161;28;20456;-73
2023/12/28 00:23:17;;;;;;;15.23;5.23;;;;;;;;;;5045383;28;20450;-75
2023/12/28 00:25:44;;;;;;;17.67;5.23;;;;;;;;;;5045251;28;20429;-75
2023/12/28 00:28:10;;;;;;;14.57;5.20;;;;;;;;;;5046834;28;20440;-74
2023/12/28 00:30:37;;;;;;;13.40;5.10;;;;;;;;;;5029437;28;20477;-76
2023/12/28 00:33:04;;;;;;;14.40;4.80;;;;;;;;;;5045204;28;20429;-75
2023/12/28 00:35:32;;;;;;;17.40;5.60;;;;;;;;;;5028953;28;20464;-75
2023/12/28 00:37:59;;;;;;;18.37;5.73;;;;;;;;;;5053932;28;20768;-76
2023/12/28 00:40:27;;;;;;;12.73;5.40;;;;;;;;;;5038126;28;20425;-75
2023/12/28 00:42:54;;;;;;;13.93;4.90;;;;;;;;;;5038769;28;20972;-77
2023/12/28 00:45:21;;;;;;;11.30;4.67;;;;;;;;;;5055613;28;20417;-77
2023/12/28 00:47:48;;;;;;;12.07;5.27;;;;;;;;;;5054492;28;20524;-77
2023/12/28 00:50:14;;;;;;;13.07;5.63;;;;;;;;;;5055298;28;20468;-77
2023/12/28 00:52:41;;;;;;;18.03;6.23;;;;;;;;;;5037752;28;20414;-77
2023/12/28 00:55:08;;;;;;;17.43;7.23;;;;;;;;;;5055385;28;20460;-77
2023/12/28 00:57:35;;;;;;;12.97;6.13;;;;;;;;;;5037651;28;20436;-78
2023/12/28 01:00:02;;;;;;;14.27;6.80;;;;;;;;;;5054029;28;20470;-77
2023/12/28 01:02:28;;;;;;;21.23;7.13;;;;;;;;;;5055226;28;20416;-77
2023/12/28 01:04:55;;;;;;;18.87;7.07;;;;;;;;;;5055217;28;20434;-78
2023/12/28 01:07:22;;;;;;;20.90;8.23;;;;;;;;;;5054656;28;20495;-78
2023/12/28 01:09:50;;;;;;;20.93;7.87;;;;;;;;;;5037428;28;20487;-78
2023/12/28 01:12:17;;;;;;;19.33;7.10;;;;;;;;;;5055664;28;20422;-78
2023/12/28 01:51:05;;;;;;;19.53;8.57;;;;;;;;;;5054616;28;20475;-77
2023/12/28 01:53:32;;;;;;;23.80;9.33;;;;;;;;;;5054312;28;20512;-77
2023/12/28 01:56:17;;;;;;;24.10;8.80;;;;;;;;;;5053261;28;20994;-77
2023/12/28 01:58:43;;;;;;;23.57;8.00;;;;;;;;;;5053747;28;20427;-77
2023/12/28 02:01:10;;;;;;;19.43;8.67;;;;;;;;;;5052918;28;20495;-77
2023/12/28 02:03:37;;;;;;;20.73;8.70;;;;;;;;;;5053683;28;20437;-77
2023/12/28 02:06:04;;;;;;;21.53;8.53;;;;;;;;;;5052805;28;20458;-77
2023/12/28 02:08:31;;;;;;;19.80;8.10;;;;;;;;;;5052668;28;20413;-77
2023/12/28 02:10:58;;;;;;;22.77;8.57;;;;;;;;;;5053708;28;20461;-77
2023/12/28 02:13:25;;;;;;;21.23;8.77;;;;;;;;;;5053362;28;20749;-77
2023/12/28 02:15:54;;;;;;;22.33;8.23;;;;;;;;;;5036194;28;20533;-77
2023/12/28 02:18:21;;;;;;;18.03;8.47;;;;;;;;;;5052645;28;20776;-77
2023/12/28 02:20:48;;;;;;;22.10;9.07;;;;;;;;;;5052584;28;20432;-77
2023/12/28 02:23:33;;;;;;;22.20;10.20;;;;;;;;;;5052890;28;20487;-77
2023/12/28 02:25:59;;;;;;;22.80;9.10;;;;;;;;;;5052533;28;20522;-77
2023/12/28 02:28:43;;;;;;;22.80;10.23;;;;;;;;;;5054129;28;20434;-78
2023/12/28 02:31:16;;;;;;;22.77;9.43;;;;;;;;;;5052647;28;20459;-79
2023/12/28 02:33:46;;;;;;;24.93;10.57;;;;;;;;;;5053363;28;20468;-77
2023/12/28 02:36:13;;;;;;;29.37;11.43;;;;;;;;;;5053272;28;20426;-78
2023/12/28 02:38:40;;;;;;;25.90;10.90;;;;;;;;;;5053701;28;20428;-78
2023/12/28 02:41:08;;;;;;;20.13;9.90;;;;;;;;;;5052104;28;20436;-78
2023/12/28 02:43:35;;;;;;;24.93;10.27;;;;;;;;;;5054028;28;20416;-78
2023/12/28 02:46:01;;;;;;;24.97;11.00;;;;;;;;;;5053704;28;20429;-77
2023/12/28 02:48:28;;;;;;;23.33;10.70;;;;;;;;;;5052438;28;20463;-78
2023/12/28 02:50:55;;;;;;;27.10;11.53;;;;;;;;;;5052282;28;20872;-78
2023/12/28 02:53:21;;;;;;;27.17;11.73;;;;;;;;;;5052993;28;20516;-78
2023/12/28 02:55:48;;;;;;;28.03;10.87;;;;;;;;;;5054818;28;20527;-78
2023/12/28 02:58:15;;;;;;;22.43;11.43;;;;;;;;;;5057885;28;20413;-77
2023/12/28 03:00:41;;;;;;;25.23;11.50;;;;;;;;;;5057672;28;20429;-77
2023/12/28 03:03:08;;;;;;;23.00;11.67;;;;;;;;;;5058079;28;20409;-77
2023/12/28 03:05:35;;;;;;;30.97;13.10;;;;;;;;;;5056323;28;20417;-78
2023/12/28 03:08:02;;;;;;;26.07;12.53;;;;;;;;;;5056167;28;20454;-78
2023/12/28 03:10:28;;;;;;;29.97;13.10;;;;;;;;;;5057091;28;20456;-79
2023/12/28 03:12:55;;;;;;;27.80;13.33;;;;;;;;;;5039831;28;20973;-78
2023/12/28 03:15:22;;;;;;;29.47;14.53;;;;;;;;;;5056552;28;20550;-78
2023/12/28 03:17:49;;;;;;;30.57;15.03;;;;;;;;;;5056090;28;20948;-77
2023/12/28 03:20:16;;;;;;;32.00;14.23;;;;;;;;;;5055600;28;20498;-78
2023/12/28 03:22:42;;;;;;;34.73;15.93;;;;;;;;;;5056226;28;20483;-78
2023/12/28 03:25:09;;;;;;;36.83;17.53;;;;;;;;;;5055661;28;20836;-78
2023/12/28 03:27:36;;;;;;;30.43;15.93;;;;;;;;;;5055938;28;20415;-77
2023/12/28 03:30:02;;;;;;;41.57;17.50;;;;;;;;;;5039920;28;20952;-81
2023/12/28 03:32:30;;;;;;;40.17;16.27;;;;;;;;;;5057040;28;20453;-77
2023/12/28 03:34:57;;;;;;;36.17;16.83;;;;;;;;;;5055805;28;20457;-77
2023/12/28 03:37:24;;;;;;;34.50;15.83;;;;;;;;;;5055410;28;20417;-78
2023/12/28 03:39:50;;;;;;;35.50;16.60;;;;;;;;;;5055564;28;20535;-78
2023/12/28 03:42:17;;;;;;;31.10;15.47;;;;;;;;;;5057308;28;20425;-78
2023/12/28 03:44:44;;;;;;;29.77;15.50;;;;;;;;;;5055627;28;20510;-78
2023/12/28 03:47:11;;;;;;;29.43;15.30;;;;;;;;;;5055414;28;20422;-78
2023/12/28 03:49:38;;;;;;;32.17;14.43;;;;;;;;;;5057179;28;20425;-79
2023/12/28 03:52:05;;;;;;;37.70;15.53;;;;;;;;;;5038405;28;21050;-78
2023/12/28 03:54:32;;;;;;;37.07;15.07;;;;;;;;;;5056582;28;20432;-78
2023/12/28 03:56:59;;;;;;;34.87;15.37;;;;;;;;;;5056556;28;20508;-78
2023/12/28 03:59:25;;;;;;;34.47;15.20;;;;;;;;;;5055225;28;20471;-79
2023/12/28 04:02:09;;;;;;;26.53;14.40;;;;;;;;;;5055270;28;20420;-78
2023/12/28 04:04:36;;;;;;;29.70;14.40;;;;;;;;;;5056123;28;20943;-78
2023/12/28 04:07:07;;;;;;;31.80;15.30;;;;;;;;;;5054139;28;20433;-77
2023/12/28 04:09:34;;;;;;;31.17;14.27;;;;;;;;;;5054982;28;20421;-78
2023/12/28 04:12:00;;;;;;;25.93;13.97;;;;;;;;;;5038436;28;20459;-78
2023/12/28 04:14:27;;;;;;;28.77;14.40;;;;;;;;;;5038724;28;20528;-79
2023/12/28 04:16:54;;;;;;;27.10;13.40;;;;;;;;;;5054861;28;20438;-78
2023/12/28 04:19:20;;;;;;;30.27;13.60;;;;;;;;;;5061179;28;20464;-78
2023/12/28 04:21:47;;;;;;;29.90;14.83;;;;;;;;;;5074927;28;20466;-78
2023/12/28 04:24:14;;;;;;;29.37;14.83;;;;;;;;;;5074696;28;20449;-78
2023/12/28 04:26:40;;;;;;;33.70;15.27;;;;;;;;;;5074680;28;20458;-78
2023/12/28 04:29:07;;;;;;;33.30;14.40;;;;;;;;;;5075794;28;20432;-78
2023/12/28 04:31:39;;;;;;;32.60;15.23;;;;;;;;;;5074490;28;20481;-78
2023/12/28 04:34:05;;;;;;;29.33;14.63;;;;;;;;;;5075205;28;20418;-78
2023/12/28 04:36:32;;;;;;;32.47;15.43;;;;;;;;;;5057978;28;20426;-78
2023/12/28 04:38:59;;;;;;;32.50;13.83;;;;;;;;;;5058974;28;20454;-77
2023/12/28 04:41:26;;;;;;;25.13;11.93;;;;;;;;;;5075233;28;20895;-78
2023/12/28 04:43:52;;;;;;;32.70;14.03;;;;;;;;;;5057929;28;20760;-78
2023/12/28 04:46:21;;;;;;;27.90;12.57;;;;;;;;;;5042059;28;20501;-79
2023/12/28 04:48:48;;;;;;;30.60;12.60;;;;;;;;;;5057380;28;20475;-78
2023/12/28 04:51:15;;;;;;;27.43;12.20;;;;;;;;;;5057245;28;20479;-79
2023/12/28 04:53:42;;;;;;;25.60;11.27;;;;;;;;;;5041163;28;20524;-79
2023/12/28 04:56:09;;;;;;;24.03;11.43;;;;;;;;;;5073901;28;20429;-80
2023/12/28 04:58:35;;;;;;;23.07;11.90;;;;;;;;;;5075441;28;20435;-79
2023/12/28 05:01:02;;;;;;;22.57;11.77;;;;;;;;;;5057488;28;20428;-79
2023/12/28 05:03:29;;;;;;;24.20;12.33;;;;;;;;;;5074042;28;20467;-78
2023/12/28 05:05:56;;;;;;;22.97;11.13;;;;;;;;;;5058168;28;20420;-79
2023/12/28 05:08:22;;;;;;;21.97;11.47;;;;;;;;;;5075125;28;20431;-79
2023/12/28 05:10:49;;;;;;;26.77;11.20;;;;;;;;;;5075760;28;20465;-80
2023/12/28 05:13:16;;;;;;;24.23;10.73;;;;;;;;;;5057288;28;20523;-79
2023/12/28 05:15:42;;;;;;;18.50;8.83;;;;;;;;;;5041013;28;20436;-79
2023/12/28 05:18:09;;;;;;;22.50;11.03;;;;;;;;;;5074969;28;20432;-78
2023/12/28 05:20:53;;;;;;;29.07;11.53;;;;;;;;;;5075220;28;20450;-78
2023/12/28 05:23:19;;;;;;;22.60;10.93;;;;;;;;;;5074835;28;20439;-78
2023/12/28 05:26:03;;;;;;;22.87;8.77;;;;;;;;;;5074469;28;20381;-78
2023/12/28 05:28:30;;;;;;;25.20;10.67;;;;;;;;;;5074844;28;20756;-78
2023/12/28 05:31:14;;;;;;;10.73;5.57;;;;;;;;;;5059525;28;20439;-77
2023/12/28 05:33:40;;;;;;;22.93;11.20;;;;;;;;;;5073235;28;20413;-76
2023/12/28 05:36:07;;;;;;;22.37;10.40;;;;;;;;;;5074287;28;20451;-75
2023/12/28 05:38:37;;;;;;;22.47;10.77;;;;;;;;;;5074533;28;20416;-75
2023/12/28 05:41:04;;;;;;;23.30;10.70;;;;;;;;;;5073312;28;20487;-75
2023/12/28 05:43:30;;;;;;;19.20;8.67;;;;;;;;;;5074603;28;20522;-75
2023/12/28 05:45:58;;;;;;;22.50;9.97;;;;;;;;;;5072195;28;20421;-74
2023/12/28 05:48:25;;;;;;;25.07;11.33;;;;;;;;;;5073881;28;20432;-77
2023/12/28 05:51:09;;;;;;;19.80;10.03;;;;;;;;;;5074113;28;20467;-76
2023/12/28 05:53:35;;;;;;;11.63;5.57;;;;;;;;;;5073903;28;20428;-77
2023/12/28 05:56:03;;;;;;;19.07;8.90;;;;;;;;;;5073912;28;20774;-77
2023/12/28 05:58:30;;;;;;;10.07;5.57;;;;;;;;;;5072530;28;20456;-75
2023/12/28 06:00:57;;;;;;;14.00;6.67;;;;;;;;;;5072690;28;20497;-75
2023/12/28 06:03:27;;;;;;;18.73;9.13;;;;;;;;;;5073784;28;20444;-75
2023/12/28 06:05:55;;;;;;;13.03;6.80;;;;;;;;;;5073296;28;20720;-75
2023/12/28 06:08:22;;;;;;;9.00;4.83;;;;;;;;;;5072596;28;20527;-75
2023/12/28 06:11:06;;;;;;;16.03;6.40;;;;;;;;;;5074203;28;20471;-75
2023/12/28 06:13:33;;;;;;;13.27;6.30;;;;;;;;;;5072549;28;20906;-74
2023/12/28 06:16:17;;;;;;;13.80;6.67;;;;;;;;;;5072903;28;20469;-73
2023/12/28 06:18:44;;;;;;;15.30;6.57;;;;;;;;;;5073597;28;20733;-77
2023/12/28 06:21:12;;;;;;;12.13;4.13;;;;;;;;;;5072583;28;20420;-76
2023/12/28 06:23:39;;;;;;;11.00;5.23;;;;;;;;;;5056200;28;20857;-75
2023/12/28 06:26:06;;;;;;;16.73;8.07;;;;;;;;;;5072811;28;20428;-75
2023/12/28 06:28:33;;;;;;;12.20;5.70;;;;;;;;;;5073536;28;20448;-74
2023/12/28 06:31:00;;;;;;;18.63;8.90;;;;;;;;;;5072969;28;20942;-74
2023/12/28 06:33:31;;;;;;;19.17;8.10;;;;;;;;;;5072199;28;20828;-74
2023/12/28 06:35:58;;;;;;;7.73;4.27;;;;;;;;;;5073026;28;20483;-76
2023/12/28 06:38:25;;;;;;;16.73;7.93;;;;;;;;;;5073124;28;20430;-78
2023/12/28 06:40:56;;;;;;;13.00;6.17;;;;;;;;;;5073695;28;20515;-83
2023/12/28 06:43:23;;;;;;;18.07;8.37;;;;;;;;;;5074218;28;20444;-79
2023/12/28 06:45:51;;;;;;;10.67;4.87;;;;;;;;;;5056008;28;20474;-84
2023/12/28 06:48:18;;;;;;;18.80;9.23;;;;;;;;;;5072199;28;20424;-74
2023/12/28 06:50:46;;;;;;;7.93;4.53;;;;;;;;;;5073548;28;20470;-75
2023/12/28 06:53:12;;;;;;;11.23;5.23;;;;;;;;;;5055695;28;20428;-75
2023/12/28 06:55:39;;;;;;;17.43;5.43;;;;;;;;;;5072167;28;20439;-75
2023/12/28 06:58:07;;;;;;;9.07;4.10;;;;;;;;;;5072091;28;20412;-75
2023/12/28 07:00:35;;;;;;;22.07;9.83;;;;;;;;;;5072250;28;20438;-75
2023/12/28 07:03:02;;;;;;;20.73;9.70;;;;;;;;;;5072642;28;20416;-75
2023/12/28 07:05:29;;;;;;;15.77;6.97;;;;;;;;;;5072978;28;20428;-73
2023/12/28 07:07:56;;;;;;;20.47;8.13;;;;;;;;;;5055593;28;20439;-72
2023/12/28 07:10:24;;;;;;;20.47;10.30;;;;;;;;;;5071957;28;20424;-75
2023/12/28 07:12:50;;;;;;;12.63;6.10;;;;;;;;;;5073243;28;20969;-73
2023/12/28 07:15:17;;;;;;;19.17;9.43;;;;;;;;;;5055330;28;20474;-72
2023/12/28 07:17:44;;;;;;;16.40;7.03;;;;;;;;;;5072071;28;20911;-74
2023/12/28 07:20:11;;;;;;;17.20;8.70;;;;;;;;;;5055736;28;20936;-75
2023/12/28 07:22:38;;;;;;;15.30;7.50;;;;;;;;;;5072204;28;20799;-75
2023/12/28 07:25:07;;;;;;;16.63;8.10;;;;;;;;;;5055477;28;20860;-75
2023/12/28 07:27:34;;;;;;;23.27;10.13;;;;;;;;;;5073171;28;20432;-73
2023/12/28 07:30:01;;;;;;;20.73;10.70;;;;;;;;;;5055395;28;20494;-76
2023/12/28 07:32:31;;;;;;;20.83;8.87;;;;;;;;;;5071891;28;20992;-73
2023/12/28 07:35:15;;;;;;;8.70;3.77;;;;;;;;;;5072597;28;20733;-74
2023/12/28 07:37:42;;;;;;;17.63;9.77;;;;;;;;;;5038923;28;20939;-74
2023/12/28 07:40:09;;;;;;;12.07;5.93;;;;;;;;;;5073181;28;20420;-74
2023/12/28 07:42:36;;;;;;;15.43;6.77;;;;;;;;;;5058057;28;20477;-74
2023/12/28 07:45:03;;;;;;;18.10;8.57;;;;;;;;;;5075555;28;20428;-73
2023/12/28 07:47:30;;;;;;;7.70;4.47;;;;;;;;;;5043365;28;20429;-76
2023/12/28 07:49:56;;;;;;;23.77;10.67;;;;;;;;;;5075327;28;20431;-76
2023/12/28 07:52:23;;;;;;;18.77;9.20;;;;;;;;;;5043355;28;20509;-78
2023/12/28 07:54:50;;;;;;;18.23;8.17;;;;;;;;;;5059233;28;20435;-74
2023/12/28 07:57:17;;;;;;;13.50;7.07;;;;;;;;;;5058676;28;20595;-75
2023/12/28 07:59:44;;;;;;;12.83;6.90;;;;;;;;;;5075637;28;20763;-73
2023/12/28 08:06:05;;;;;;;23.87;8.63;;;;;;;;;;5076484;28;20367;-72
2023/12/28 08:08:31;;;;;;;12.90;6.80;;;;;;;;;;5058543;28;20485;-72
2023/12/28 08:10:58;;;;;;;15.63;6.63;;;;;;;;;;5059233;28;20523;-71
2023/12/28 08:13:25;;;;;;;14.20;6.97;;;;;;;;;;5075115;28;20431;-71
2023/12/28 08:16:09;;;;;;;8.20;4.67;;;;;;;;;;5046816;28;20169;-72
2023/12/28 08:18:35;;;;;;;15.73;7.83;;;;;;;;;;5075923;28;20420;-71
2023/12/28 08:21:02;;;;;;;7.80;4.57;;;;;;;;;;5076270;28;20447;-72
2023/12/28 08:23:29;;;;;;;16.20;7.83;;;;;;;;;;5075135;28;20452;-72
2023/12/28 08:25:56;;;;;;;17.23;9.00;;;;;;;;;;5075486;28;20432;-72
2023/12/28 08:28:23;;;;;;;14.30;8.93;;;;;;;;;;5074536;28;20224;-72
2023/12/28 08:30:49;;;;;;;14.57;8.67;;;;;;;;;;5058136;28;20439;-71
2023/12/28 08:33:16;;;;;;;15.87;8.60;;;;;;;;;;5058076;28;20458;-72
2023/12/28 08:35:45;;;;;;;14.70;7.90;;;;;;;;;;5074849;28;20448;-72
2023/12/28 08:38:11;;;;;;;15.53;7.63;;;;;;;;;;5074873;28;20944;-72
2023/12/28 08:40:38;;;;;;;14.70;7.47;;;;;;;;;;5057819;28;20221;-72
2023/12/28 08:43:05;;;;;;;9.23;5.20;;;;;;;;;;5074322;28;20427;-72
2023/12/28 08:45:32;;;;;;;15.70;7.77;;;;;;;;;;5058517;28;20428;-72
2023/12/28 08:47:59;;;;;;;13.57;7.60;;;;;;;;;;5041715;28;20621;-72
2023/12/28 08:50:26;;;;;;;14.50;7.00;;;;;;;;;;5075934;28;20467;-72
2023/12/28 08:52:52;;;;;;;12.17;7.43;;;;;;;;;;5075126;28;20648;-72
2023/12/28 08:55:19;;;;;;;16.70;7.80;;;;;;;;;;5057657;28;20288;-72
2023/12/28 08:58:03;;;;;;;16.73;9.00;;;;;;;;;;5060676;28;20188;-72
2023/12/28 09:00:30;;;;;;;12.43;6.37;;;;;;;;;;5041149;28;20182;-72
2023/12/28 09:02:58;;;;;;;17.27;9.70;;;;;;;;;;5075333;28;20422;-72
2023/12/28 09:05:24;;;;;;;18.67;8.43;;;;;;;;;;5074113;28;20186;-72
2023/12/28 09:07:51;;;;;;;14.57;7.83;;;;;;;;;;5073846;28;20182;-72
2023/12/28 09:10:35;;;;;;;18.83;10.03;;;;;;;;;;5060177;28;20159;-72
2023/12/28 09:13:03;;;;;;;18.47;10.13;;;;;;;;;;5075109;28;20212;-72
2023/12/28 09:15:47;;;;;;;17.60;9.60;;;;;;;;;;5060270;28;20609;-72
2023/12/28 09:18:14;;;;;;;18.63;9.30;;;;;;;;;;5074820;28;20420;-72
2023/12/28 09:20:42;;;;;;;18.97;11.10;;;;;;;;;;5074848;28;20174;-71
2023/12/28 09:23:10;;;;;;;18.10;9.73;;;;;;;;;;5073414;28;20280;-72
2023/12/28 09:25:38;;;;;;;12.77;7.67;;;;;;;;;;5041032;28;20653;-72
2023/12/28 09:28:05;;;;;;;17.57;10.33;;;;;;;;;;5075137;28;20269;-72
2023/12/28 09:30:32;;;;;;;18.27;9.57;;;;;;;;;;5061624;28;20182;-71
2023/12/28 09:33:00;;;;;;;14.83;7.20;;;;;;;;;;5054642;28;20229;-72
2023/12/28 09:35:27;;;;;;;21.43;10.77;;;;;;;;;;5036961;28;20206;-72
2023/12/28 09:37:54;;;;;;;19.63;9.90;;;;;;;;;;5036542;28;20199;-72
2023/12/28 09:40:21;;;;;;;20.20;10.17;;;;;;;;;;5053562;28;20286;-72
2023/12/28 09:42:48;;;;;;;18.10;9.37;;;;;;;;;;5053107;28;20210;-72
2023/12/28 09:45:15;;;;;;;17.27;9.07;;;;;;;;;;5054586;28;20214;-72
2023/12/28 09:47:43;;;;;;;17.47;10.13;;;;;;;;;;5053600;28;20610;-72
2023/12/28 09:50:11;;;;;;;16.57;9.13;;;;;;;;;;5051354;28;20226;-76
2023/12/28 09:52:38;;;;;;;15.73;8.87;;;;;;;;;;5053125;28;20221;-72
2023/12/28 09:55:05;;;;;;;14.03;7.57;;;;;;;;;;5054222;28;20197;-76
2023/12/28 09:57:32;;;;;;;17.77;8.93;;;;;;;;;;5052985;28;20240;-73
2023/12/28 09:59:59;;;;;;;15.73;8.73;;;;;;;;;;5036908;28;20206;-75
2023/12/28 10:02:26;;;;;;;15.60;8.33;;;;;;;;;;5054170;28;20186;-77
2023/12/28 10:04:53;;;;;;;19.07;9.13;;;;;;;;;;5052389;28;20233;-72
2023/12/28 10:07:21;;;;;;;10.10;5.23;;;;;;;;;;5036648;28;20186;-72
2023/12/28 10:09:48;;;;;;;26.80;9.63;;;;;;;;;;5054078;28;20187;-76
2023/12/28 10:12:15;;;;;;;11.60;7.67;;;;;;;;;;5052796;28;20206;-74
2023/12/28 10:14:42;;;;;;;9.87;5.17;;;;;;;;;;5052892;28;20257;-74
2023/12/28 10:17:09;;;;;;;17.47;8.33;;;;;;;;;;5052908;28;20174;-71
2023/12/28 10:19:36;;;;;;;9.60;6.03;;;;;;;;;;5036268;28;20189;-74
2023/12/28 10:22:04;;;;;;;15.30;7.37;;;;;;;;;;5054664;28;20250;-76
2023/12/28 10:24:33;;;;;;;14.80;8.63;;;;;;;;;;5053456;28;20256;-74
2023/12/28 10:27:01;;;;;;;9.83;5.53;;;;;;;;;;5053202;28;20273;-74
2023/12/28 10:29:27;;;;;;;9.33;5.60;;;;;;;;;;5053232;28;20209;-72
2023/12/28 10:31:55;;;;;;;11.17;6.47;;;;;;;;;;5036296;28;20202;-72
2023/12/28 10:34:22;;;;;;;16.77;7.93;;;;;;;;;;5052356;28;20195;-73
2023/12/28 10:36:49;;;;;;;13.20;5.73;;;;;;;;;;5052866;28;20247;-72
2023/12/28 10:39:17;;;;;;;12.63;7.27;;;;;;;;;;5035993;28;20325;-72
2023/12/28 10:41:44;;;;;;;14.13;8.13;;;;;;;;;;5036110;28;20237;-69
2023/12/28 10:44:11;;;;;;;16.10;8.67;;;;;;;;;;5053458;28;20183;-69
2023/12/28 10:46:41;;;;;;;14.47;7.80;;;;;;;;;;5052112;28;20195;-69
2023/12/28 10:49:12;;;;;;;14.23;7.90;;;;;;;;;;5035926;28;20198;-68
2023/12/28 10:51:40;;;;;;;13.37;8.23;;;;;;;;;;5053593;28;20240;-69
2023/12/28 10:54:12;;;;;;;10.53;6.67;;;;;;;;;;5052810;28;20190;-69
2023/12/28 10:56:47;;;;;;;10.07;4.97;;;;;;;;;;5035922;28;20183;-68
2023/12/28 10:59:24;;;;;;;13.13;8.10;;;;;;;;;;5052258;28;20170;-69
2023/12/28 11:01:51;;;;;;;12.10;6.50;;;;;;;;;;5036020;28;20191;-69
2023/12/28 11:04:19;;;;;;;13.67;7.27;;;;;;;;;;5052363;28;20269;-69
2023/12/28 11:06:45;;;;;;;12.67;6.13;;;;;;;;;;5053547;28;20186;-69
2023/12/28 11:09:12;;;;;;;12.07;5.80;;;;;;;;;;5052293;28;20260;-69
2023/12/28 11:11:40;;;;;;;10.87;6.53;;;;;;;;;;5052807;28;20189;-69
2023/12/28 11:14:06;;;;;;;10.83;6.53;;;;;;;;;;5052074;28;20602;-69
2023/12/28 11:16:33;;;;;;;14.27;6.20;;;;;;;;;;5053732;28;20213;-69
2023/12/28 11:19:00;;;;;;;10.27;6.30;;;;;;;;;;5039393;28;20233;-69
2023/12/28 11:21:27;;;;;;;14.50;6.60;;;;;;;;;;5056201;28;20187;-69
2023/12/28 11:23:54;;;;;;;8.90;5.03;;;;;;;;;;5039406;28;20253;-69
2023/12/28 11:26:21;;;;;;;11.80;6.63;;;;;;;;;;5039123;28;20187;-69
2023/12/28 11:28:48;;;;;;;9.63;6.23;;;;;;;;;;5039188;28;20277;-69
2023/12/28 11:31:33;;;;;;;12.70;7.07;;;;;;;;;;5056166;28;20158;-69
2023/12/28 11:34:00;;;;;;;11.63;6.23;;;;;;;;;;5039702;28;20258;-69
2023/12/28 11:36:46;;;;;;;10.00;6.30;;;;;;;;;;5041717;28;20197;-69
2023/12/28 11:39:18;;;;;;;9.70;5.97;;;;;;;;;;5022854;28;20203;-69
2023/12/28 11:41:46;;;;;;;7.67;4.47;;;;;;;;;;5039666;28;20185;-68
2023/12/28 11:44:12;;;;;;;8.57;5.70;;;;;;;;;;5055636;28;20194;-68
2023/12/28 11:46:39;;;;;;;10.83;5.43;;;;;;;;;;5022923;28;20656;-68
2023/12/28 11:49:09;;;;;;;11.17;5.23;;;;;;;;;;5056547;28;20312;-68
2023/12/28 11:51:37;;;;;;;7.80;5.60;;;;;;;;;;5055378;28;20214;-68
2023/12/28 11:54:04;;;;;;;6.87;4.27;;;;;;;;;;5055432;28;20187;-68
2023/12/28 11:56:48;;;;;;;11.07;5.07;;;;;;;;;;5056646;28;20155;-68
2023/12/28 11:59:15;;;;;;;8.60;4.80;;;;;;;;;;5055117;28;20266;-68
2023/12/28 12:01:59;;;;;;;8.60;3.83;;;;;;;;;;5041820;28;20177;-68
2023/12/28 12:04:26;;;;;;;9.03;4.40;;;;;;;;;;5055323;28;20233;-68
2023/12/28 12:06:53;;;;;;;10.10;3.80;;;;;;;;;;5039013;28;20530;-68
2023/12/28 12:09:22;;;;;;;9.97;4.10;;;;;;;;;;5054942;28;20182;-68
2023/12/28 12:11:49;;;;;;;6.23;3.13;;;;;;;;;;5039273;28;20182;-68
2023/12/28 12:14:16;;;;;;;15.50;4.27;;;;;;;;;;5038092;28;20695;-70
2023/12/28 12:16:43;;;;;;;4.37;2.90;;;;;;;;;;5056227;28;20229;-72
2023/12/28 12:19:11;;;;;;;8.13;4.30;;;;;;;;;;5054102;28;20274;-71
2023/12/28 12:21:38;;;;;;;7.27;4.27;;;;;;;;;;5056326;28;20183;-72
2023/12/28 12:24:05;;;;;;;10.50;4.20;;;;;;;;;;5038413;28;20793;-74
2023/12/28 12:26:33;;;;;;;10.03;4.23;;;;;;;;;;5038464;28;20233;-75
2023/12/28 12:29:00;;;;;;;8.60;4.13;;;;;;;;;;5037462;28;20179;-74
2023/12/28 12:31:27;;;;;;;6.90;3.53;;;;;;;;;;5037983;28;20191;-73
2023/12/28 12:33:54;;;;;;;10.20;4.57;;;;;;;;;;5055614;28;20203;-74
2023/12/28 12:36:21;;;;;;;9.17;4.53;;;;;;;;;;5038250;28;20200;-75
2023/12/28 12:38:49;;;;;;;6.20;3.37;;;;;;;;;;5038034;28;20236;-75
2023/12/28 12:41:16;;;;;;;7.30;3.73;;;;;;;;;;5054653;28;20692;-73
2023/12/28 12:43:43;;;;;;;9.33;4.00;;;;;;;;;;5062769;28;20213;-71
2023/12/28 12:46:10;;;;;;;8.83;3.60;;;;;;;;;;5074486;28;20186;-71
2023/12/28 12:48:38;;;;;;;5.67;3.20;;;;;;;;;;5075147;28;20190;-74
2023/12/28 12:51:22;;;;;;;8.77;3.43;;;;;;;;;;5057702;28;20229;-74
2023/12/28 12:53:48;;;;;;;6.00;3.30;;;;;;;;;;5064608;28;20233;-74
2023/12/28 12:56:17;;;;;;;7.10;3.67;;;;;;;;;;5064961;28;20190;-73
2023/12/28 12:58:45;;;;;;;5.33;3.47;;;;;;;;;;5048490;28;20189;-72
2023/12/28 13:01:11;;;;;;;7.17;3.10;;;;;;;;;;5064909;28;20649;-72
2023/12/28 13:03:39;;;;;;;7.87;3.67;;;;;;;;;;5064686;28;20273;-72
2023/12/28 13:06:07;;;;;;;8.40;3.47;;;;;;;;;;5064962;28;20197;-71
2023/12/28 13:08:35;;;;;;;11.20;4.40;;;;;;;;;;5047919;28;20518;-72
2023/12/28 13:11:24;;;;;;;8.70;3.70;;;;;;;;;;5036324;28;20575;-72
2023/12/28 13:13:54;;;;;;;6.57;3.07;;;;;;;;;;5032845;28;20227;-72
2023/12/28 13:16:21;;;;;;;8.30;3.77;;;;;;;;;;5064468;28;20190;-78
2023/12/28 13:18:48;;;;;;;14.87;5.77;;;;;;;;;;5047915;28;20194;-73
2023/12/28 13:21:16;;;;;;;8.83;4.20;;;;;;;;;;5048149;28;20285;-72
2023/12/28 13:23:43;;;;;;;10.60;5.20;;;;;;;;;;5063504;28;20243;-71
2023/12/28 13:26:10;;;;;;;11.27;4.23;;;;;;;;;;5047657;28;20641;-72
2023/12/28 13:28:36;;;;;;;11.40;4.93;;;;;;;;;;5064257;28;20194;-71
2023/12/28 13:31:03;;;;;;;10.13;4.47;;;;;;;;;;5047760;28;20631;-72
2023/12/28 13:33:30;;;;;;;9.80;4.70;;;;;;;;;;5064623;28;20232;-73
2023/12/28 13:35:57;;;;;;;10.50;4.67;;;;;;;;;;5064394;28;20190;-73
2023/12/28 13:38:42;;;;;;;6.87;3.90;;;;;;;;;;5065770;28;20261;-74
2023/12/28 13:41:10;;;;;;;8.53;3.97;;;;;;;;;;5064119;28;21944;-71
2023/12/28 13:43:37;;;;;;;10.07;4.73;;;;;;;;;;5057369;28;20559;-74
2023/12/28 13:46:04;;;;;;;8.37;4.83;;;;;;;;;;5057816;28;20194;-74
2023/12/28 13:48:31;;;;;;;11.33;5.40;;;;;;;;;;5059441;28;20187;-74
2023/12/28 13:50:58;;;;;;;9.83;4.73;;;;;;;;;;5053322;28;20222;-75
2023/12/28 13:53:25;;;;;;;10.07;4.97;;;;;;;;;;5053885;28;20638;-74
2023/12/28 13:55:52;;;;;;;11.00;5.00;;;;;;;;;;5037028;28;20191;-75
2023/12/28 13:58:19;;;;;;;11.63;6.97;;;;;;;;;;5053925;28;20278;-74
2023/12/28 14:00:45;;;;;;;8.97;4.93;;;;;;;;;;5072977;28;20178;-74
2023/12/28 14:03:13;;;;;;;12.00;6.33;;;;;;;;;;5073047;28;20178;-74
2023/12/28 14:05:41;;;;;;;9.53;5.30;;;;;;;;;;5073371;28;20280;-74
2023/12/28 14:08:09;;;;;;;9.30;4.53;;;;;;;;;;5073304;28;20194;-74
2023/12/28 14:10:38;;;;;;;7.70;3.80;;;;;;;;;;5068439;28;20178;-75
2023/12/28 14:13:05;;;;;;;8.70;3.83;;;;;;;;;;5052515;28;20297;-76
2023/12/28 14:15:35;;;;;;;6.70;3.60;;;;;;;;;;5042930;28;20183;-75
2023/12/28 14:18:05;;;;;;;5.97;3.50;;;;;;;;;;5063307;28;20190;-75
2023/12/28 14:20:49;;;;;;;8.07;4.47;;;;;;;;;;5054333;28;20170;-75
2023/12/28 14:27:15;;;;;;;11.03;4.23;;;;;;;;;;5054324;28;20197;-75
2023/12/28 14:29:42;;;;;;;9.27;4.93;;;;;;;;;;5053955;28;20182;-75
2023/12/28 14:32:10;;;;;;;6.80;4.07;;;;;;;;;;5052796;28;20197;-74
2023/12/28 14:34:37;;;;;;;7.03;4.33;;;;;;;;;;5052893;28;20248;-75
2023/12/28 14:37:04;;;;;;;8.13;5.20;;;;;;;;;;5052824;28;20637;-76
2023/12/28 14:39:31;;;;;;;12.53;6.13;;;;;;;;;;5053283;28;20232;-77
2023/12/28 14:42:03;;;;;;;11.60;6.00;;;;;;;;;;5054368;28;20196;-77
2023/12/28 14:44:30;;;;;;;13.73;6.07;;;;;;;;;;5053787;28;20179;-76
2023/12/28 14:46:57;;;;;;;12.73;6.17;;;;;;;;;;5053262;28;20183;-76
2023/12/28 14:49:23;;;;;;;11.30;5.83;;;;;;;;;;5053971;28;20266;-76
2023/12/28 14:51:50;;;;;;;10.47;5.60;;;;;;;;;;5056765;28;20248;-77
2023/12/28 14:54:20;;;;;;;9.70;4.77;;;;;;;;;;5041095;28;20589;-76
2023/12/28 14:56:46;;;;;;;9.97;5.90;;;;;;;;;;5057057;28;20193;-76
2023/12/28 14:59:20;;;;;;;16.50;8.20;;;;;;;;;;5057648;28;20550;-76
2023/12/28 15:01:48;;;;;;;9.63;5.97;;;;;;;;;;5057513;28;20190;-77
2023/12/28 15:04:15;;;;;;;14.40;8.53;;;;;;;;;;5040350;28;20194;-75
2023/12/28 15:06:42;;;;;;;16.07;7.43;;;;;;;;;;5073433;28;20183;-76
2023/12/28 15:09:09;;;;;;;13.10;6.07;;;;;;;;;;5056377;28;20530;-76
2023/12/28 15:11:36;;;;;;;13.33;7.03;;;;;;;;;;5058095;28;20205;-76
2023/12/28 15:14:14;;;;;;;8.70;5.60;;;;;;;;;;5056958;28;20612;-76
2023/12/28 15:16:41;;;;;;;8.60;4.93;;;;;;;;;;5056061;28;20183;-75
2023/12/28 15:19:07;;;;;;;10.80;5.80;;;;;;;;;;5056054;28;20592;-77